createdAt,value
2018-11-26T00:00:35.982Z,97.60
2018-11-26T00:03:10.112Z,97.71
2018-11-26T00:05:42.747Z,97.70
2018-11-26T00:08:21.483Z,97.87
2018-11-26T00:12:00.322Z,97.95
2018-11-26T00:14:32.889Z,97.45
2018-11-26T00:17:05.531Z,97.29
2018-11-26T00:19:38.148Z,97.79
2018-11-26T00:22:10.781Z,97.37
2018-11-26T00:24:43.384Z,98.17
2018-11-26T00:27:16.080Z,98.04
2018-11-26T00:29:48.670Z,97.62
2018-11-26T00:32:21.268Z,97.90
2018-11-26T00:34:53.862Z,97.08
2018-11-26T00:37:26.479Z,97.04
2018-11-26T00:39:59.250Z,97.29
2018-11-26T00:42:31.881Z,97.85
2018-11-26T00:45:05.090Z,97.90
2018-11-26T00:47:37.685Z,97.60
2018-11-26T00:50:10.470Z,97.24
2018-11-26T00:52:43.055Z,97.27
2018-11-26T00:55:15.724Z,97.29
2018-11-26T00:57:48.516Z,97.04
2018-11-26T01:00:21.184Z,97.95
2018-11-26T01:02:53.827Z,97.89
2018-11-26T01:05:35.365Z,97.49
2018-11-26T01:08:08.097Z,97.05
2018-11-26T01:10:40.739Z,97.14
2018-11-26T01:13:13.337Z,97.73
2018-11-26T01:15:46.716Z,97.37
2018-11-26T01:18:19.284Z,97.12
2018-11-26T01:20:51.851Z,97.10
2018-11-26T01:23:24.454Z,96.76
2018-11-26T01:25:57.107Z,96.82
2018-11-26T01:28:29.668Z,96.82
2018-11-26T01:31:02.293Z,96.91
2018-11-26T01:33:34.993Z,97.31
2018-11-26T01:36:07.626Z,97.41
2018-11-26T01:38:40.238Z,97.54
2018-11-26T01:41:12.883Z,97.82
2018-11-26T01:43:45.545Z,97.59
2018-11-26T01:46:18.161Z,97.81
2018-11-26T01:48:51.332Z,97.05
2018-11-26T01:51:23.926Z,97.13
2018-11-26T01:53:56.516Z,97.91
2018-11-26T01:56:29.131Z,97.37
2018-11-26T01:59:01.691Z,97.54
2018-11-26T02:01:34.316Z,97.97
2018-11-26T02:04:06.872Z,97.66
2018-11-26T02:06:39.481Z,97.62
2018-11-26T02:09:12.043Z,97.09
2018-11-26T02:11:44.671Z,97.44
2018-11-26T02:14:17.273Z,97.29
2018-11-26T02:16:50.043Z,97.99
2018-11-26T02:19:22.654Z,98.03
2018-11-26T02:21:55.353Z,97.47
2018-11-26T02:24:27.891Z,97.87
2018-11-26T02:27:00.474Z,97.56
2018-11-26T02:29:33.099Z,97.66
2018-11-26T02:32:05.785Z,97.30
2018-11-26T02:34:38.322Z,97.73
2018-11-26T02:37:10.981Z,97.58
2018-11-26T02:39:43.540Z,97.36
2018-11-26T02:42:16.180Z,98.28
2018-11-26T02:44:48.754Z,97.73
2018-11-26T02:47:21.310Z,97.45
2018-11-26T02:49:53.956Z,97.54
2018-11-26T02:52:26.559Z,97.81
2018-11-26T02:54:59.150Z,98.01
2018-11-26T02:57:31.713Z,97.58
2018-11-26T03:00:06.230Z,97.46
2018-11-26T03:02:38.856Z,97.09
2018-11-26T03:05:12.386Z,97.83
2018-11-26T03:07:45.107Z,97.85
2018-11-26T03:10:17.707Z,97.24
2018-11-26T03:12:50.353Z,97.86
2018-11-26T03:15:22.993Z,97.70
2018-11-26T03:17:55.583Z,97.58
2018-11-26T03:20:28.149Z,97.53
2018-11-26T03:23:00.690Z,96.79
2018-11-26T03:25:33.338Z,96.88
2018-11-26T03:28:06.977Z,97.36
2018-11-26T03:30:39.539Z,96.84
2018-11-26T03:33:12.136Z,97.21
2018-11-26T03:35:44.730Z,97.39
2018-11-26T03:38:27.342Z,96.89
2018-11-26T03:40:59.879Z,96.47
2018-11-26T03:43:32.456Z,96.47
2018-11-26T03:46:05.188Z,97.23
2018-11-26T03:48:37.827Z,96.42
2018-11-26T03:51:10.435Z,96.98
2018-11-26T03:53:43.055Z,97.25
2018-11-26T03:56:15.674Z,96.71
2018-11-26T03:58:48.286Z,97.10
2018-11-26T04:01:20.795Z,96.81
2018-11-26T04:03:53.382Z,96.36
2018-11-26T04:06:25.997Z,97.18
2018-11-26T04:08:58.552Z,97.27
2018-11-26T04:11:31.173Z,97.08
2018-11-26T04:14:03.819Z,96.96
2018-11-26T04:16:36.438Z,96.72
2018-11-26T04:19:09.008Z,97.24
2018-11-26T04:21:41.565Z,96.55
2018-11-26T04:24:14.139Z,96.62
2018-11-26T04:26:46.777Z,97.19
2018-11-26T04:29:19.411Z,96.62
2018-11-26T04:31:52.015Z,96.85
2018-11-26T04:34:24.690Z,97.34
2018-11-26T04:36:57.391Z,96.62
2018-11-26T04:39:30.027Z,96.49
2018-11-26T04:42:02.566Z,96.69
2018-11-26T04:44:35.210Z,97.00
2018-11-26T04:47:07.880Z,96.52
2018-11-26T04:49:40.509Z,96.66
2018-11-26T04:52:13.106Z,96.56
2018-11-26T04:54:45.715Z,96.98
2018-11-26T04:57:18.365Z,96.24
2018-11-26T04:59:50.950Z,96.68
2018-11-26T05:02:24.217Z,96.15
2018-11-26T05:04:56.765Z,96.23
2018-11-26T05:07:29.432Z,96.66
2018-11-26T05:10:02.118Z,96.72
2018-11-26T05:12:34.732Z,96.44
2018-11-26T05:15:10.726Z,96.52
2018-11-26T05:17:43.304Z,96.65
2018-11-26T05:20:15.888Z,96.71
2018-11-26T05:22:48.504Z,96.67
2018-11-26T05:25:21.068Z,96.95
2018-11-26T05:27:54.404Z,96.81
2018-11-26T05:30:27.007Z,96.76
2018-11-26T05:32:59.575Z,96.50
2018-11-26T05:35:32.145Z,96.85
2018-11-26T05:38:04.979Z,96.91
2018-11-26T05:40:37.742Z,96.20
2018-11-26T05:43:10.340Z,95.85
2018-11-26T05:45:42.885Z,96.47
2018-11-26T05:48:15.583Z,96.28
2018-11-26T05:50:48.149Z,95.82
2018-11-26T05:53:20.707Z,96.12
2018-11-26T05:55:53.341Z,96.04
2018-11-26T05:58:26.007Z,96.06
2018-11-26T06:00:58.615Z,96.11
2018-11-26T06:03:31.243Z,96.25
2018-11-26T06:06:04.133Z,96.48
2018-11-26T06:08:36.798Z,95.85
2018-11-26T06:11:09.386Z,96.29
2018-11-26T06:13:41.927Z,96.00
2018-11-26T06:16:14.617Z,96.59
2018-11-26T06:18:47.208Z,96.03
2018-11-26T06:21:19.826Z,96.04
2018-11-26T06:23:52.500Z,96.44
2018-11-26T06:26:25.115Z,96.63
2018-11-26T06:28:57.808Z,96.18
2018-11-26T06:31:30.454Z,96.35
2018-11-26T06:34:03.074Z,96.55
2018-11-26T06:36:35.705Z,96.32
2018-11-26T06:39:10.571Z,96.42
2018-11-26T06:41:43.136Z,97.12
2018-11-26T06:44:15.742Z,96.39
2018-11-26T06:46:48.341Z,96.78
2018-11-26T06:49:20.916Z,96.99
2018-11-26T06:51:53.469Z,97.24
2018-11-26T06:54:26.162Z,97.49
2018-11-26T06:56:58.736Z,97.49
2018-11-26T06:59:31.345Z,97.86
2018-11-26T07:02:03.976Z,97.50
2018-11-26T07:04:36.660Z,97.18
2018-11-26T07:07:09.274Z,97.33
2018-11-26T07:09:41.867Z,96.88
2018-11-26T07:12:14.498Z,96.81
2018-11-26T07:14:47.118Z,97.42
2018-11-26T07:17:19.823Z,96.58
2018-11-26T07:19:52.428Z,97.28
2018-11-26T07:22:25.048Z,97.21
2018-11-26T07:24:57.615Z,96.25
2018-11-26T07:27:30.173Z,96.53
2018-11-26T07:30:02.843Z,96.56
2018-11-26T07:32:35.504Z,96.78
2018-11-26T07:35:08.735Z,95.87
2018-11-26T07:37:41.515Z,96.64
2018-11-26T07:40:17.300Z,95.82
2018-11-26T07:43:00.417Z,95.75
2018-11-26T07:45:33.025Z,95.30
2018-11-26T07:48:07.027Z,95.30
2018-11-26T07:50:39.712Z,95.67
2018-11-26T07:53:12.316Z,95.44
2018-11-26T07:55:44.917Z,95.52
2018-11-26T07:58:17.613Z,95.76
2018-11-26T08:00:50.216Z,95.06
2018-11-26T08:03:22.866Z,95.50
2018-11-26T08:05:55.487Z,95.35
2018-11-26T08:08:28.188Z,94.60
2018-11-26T08:11:00.758Z,94.78
2018-11-26T08:13:33.379Z,94.73
2018-11-26T08:16:06.142Z,94.41
2018-11-26T08:18:38.793Z,94.19
2018-11-26T08:21:11.400Z,94.46
2018-11-26T08:23:44.043Z,93.45
2018-11-26T08:26:16.694Z,94.14
2018-11-26T08:28:49.330Z,94.14
2018-11-26T08:31:21.895Z,93.40
2018-11-26T08:33:54.530Z,92.95
2018-11-26T08:36:32.667Z,93.11
2018-11-26T08:39:13.816Z,92.81
2018-11-26T08:41:52.965Z,92.37
2018-11-26T08:45:32.847Z,92.72
2018-11-26T08:48:11.609Z,92.26
2018-11-26T08:50:44.652Z,92.75
2018-11-26T08:53:17.298Z,93.23
2018-11-26T08:55:49.912Z,92.54
2018-11-26T08:58:22.611Z,93.21
2018-11-26T09:01:00.942Z,93.27
2018-11-26T09:03:39.197Z,93.25
2018-11-26T09:06:11.745Z,93.47
2018-11-26T09:08:44.408Z,93.31
2018-11-26T09:11:17.009Z,92.61
2018-11-26T09:13:49.588Z,92.77
2018-11-26T09:16:22.163Z,92.71
2018-11-26T09:18:54.826Z,92.94
2018-11-26T09:21:27.465Z,93.35
2018-11-26T09:24:00.084Z,93.11
2018-11-26T09:26:32.656Z,92.55
2018-11-26T09:29:05.656Z,93.25
2018-11-26T09:31:38.344Z,92.92
2018-11-26T09:34:10.999Z,93.72
2018-11-26T09:36:43.559Z,93.34
2018-11-26T09:39:16.181Z,93.07
2018-11-26T09:41:48.792Z,93.32
2018-11-26T09:44:21.426Z,93.08
2018-11-26T09:46:54.031Z,93.53
2018-11-26T09:49:26.707Z,93.18
2018-11-26T09:51:59.361Z,93.54
2018-11-26T09:54:31.967Z,93.69
2018-11-26T09:57:05.774Z,93.04
2018-11-26T09:59:38.339Z,92.89
2018-11-26T10:02:10.923Z,93.24
2018-11-26T10:04:43.502Z,92.47
2018-11-26T10:07:16.176Z,92.90
2018-11-26T10:09:48.749Z,92.66
2018-11-26T10:12:21.347Z,92.81
2018-11-26T10:14:53.933Z,92.78
2018-11-26T10:17:26.498Z,93.82
2018-11-26T10:19:59.149Z,93.37
2018-11-26T10:22:31.728Z,93.20
2018-11-26T10:25:05.982Z,92.85
2018-11-26T10:27:37.911Z,92.68
2018-11-26T10:30:12.434Z,92.55
2018-11-26T10:32:45.720Z,92.41
2018-11-26T10:35:19.129Z,91.79
2018-11-26T10:37:51.702Z,91.75
2018-11-26T10:40:25.551Z,92.13
2018-11-26T10:42:58.530Z,91.68
2018-11-26T10:45:30.977Z,92.02
2018-11-26T10:48:04.112Z,90.88
2018-11-26T10:50:36.740Z,92.25
2018-11-26T10:53:09.518Z,91.81
2018-11-26T10:55:42.174Z,90.98
2018-11-26T10:58:14.813Z,90.97
2018-11-26T11:00:53.162Z,91.11
2018-11-26T11:03:26.153Z,90.58
2018-11-26T11:05:58.764Z,90.96
2018-11-26T11:08:31.505Z,91.15
2018-11-26T11:11:04.115Z,91.36
2018-11-26T11:13:36.788Z,90.55
2018-11-26T11:16:09.410Z,90.71
2018-11-26T11:18:42.013Z,90.24
2018-11-26T11:21:14.647Z,89.77
2018-11-26T11:23:47.285Z,90.07
2018-11-26T11:26:19.920Z,90.56
2018-11-26T11:28:52.524Z,89.87
2018-11-26T11:31:25.121Z,89.92
2018-11-26T11:33:57.670Z,89.02
2018-11-26T11:36:30.360Z,89.99
2018-11-26T11:39:03.697Z,90.40
2018-11-26T11:41:36.624Z,89.46
2018-11-26T11:44:09.287Z,89.78
2018-11-26T11:46:41.917Z,89.81
2018-11-26T11:49:14.676Z,90.08
2018-11-26T11:51:47.330Z,90.31
2018-11-26T11:54:20.095Z,90.50
2018-11-26T11:56:52.885Z,90.87
2018-11-26T11:59:25.562Z,90.63
2018-11-26T12:01:58.302Z,90.33
2018-11-26T12:04:31.034Z,89.56
2018-11-26T12:07:03.671Z,90.31
2018-11-26T12:09:36.313Z,89.36
2018-11-26T12:12:08.931Z,89.19
2018-11-26T12:14:41.731Z,89.43
2018-11-26T12:17:14.382Z,90.50
2018-11-26T12:19:47.053Z,89.89
2018-11-26T12:22:19.724Z,89.53
2018-11-26T12:24:52.387Z,90.34
2018-11-26T12:27:26.065Z,89.75
2018-11-26T12:29:58.697Z,89.61
2018-11-26T12:32:31.334Z,89.98
2018-11-26T12:35:04.419Z,89.48
2018-11-26T12:37:37.076Z,90.00
2018-11-26T12:40:11.993Z,89.37
2018-11-26T12:42:44.610Z,89.67
2018-11-26T12:45:21.727Z,89.33
2018-11-26T12:47:54.340Z,88.54
2018-11-26T12:50:27.030Z,89.07
2018-11-26T12:52:59.778Z,88.11
2018-11-26T12:55:32.598Z,88.02
2018-11-26T12:58:06.972Z,88.72
2018-11-26T13:00:39.649Z,88.70
2018-11-26T13:03:13.875Z,88.94
2018-11-26T13:05:47.478Z,88.17
2018-11-26T13:08:20.118Z,88.11
2018-11-26T13:10:52.722Z,89.06
2018-11-26T13:13:25.383Z,88.09
2018-11-26T13:15:58.034Z,88.02
2018-11-26T13:18:30.733Z,88.16
2018-11-26T13:21:03.354Z,88.67
2018-11-26T13:23:36.053Z,87.93
2018-11-26T13:26:08.694Z,88.13
2018-11-26T13:28:41.369Z,88.21
2018-11-26T13:31:14.037Z,87.93
2018-11-26T13:33:47.561Z,88.27
2018-11-26T13:36:20.241Z,87.31
2018-11-26T13:38:52.939Z,88.04
2018-11-26T13:41:25.647Z,87.58
2018-11-26T13:43:58.287Z,87.50
2018-11-26T13:46:31.725Z,87.97
2018-11-26T13:49:04.978Z,87.37
2018-11-26T13:51:38.891Z,88.04
2018-11-26T13:54:11.583Z,87.86
2018-11-26T13:56:44.326Z,87.84
2018-11-26T13:59:17.034Z,88.15
2018-11-26T14:01:49.773Z,86.86
2018-11-26T14:04:22.485Z,87.48
2018-11-26T14:06:55.294Z,87.22
2018-11-26T14:09:27.997Z,87.69
2018-11-26T14:12:00.700Z,87.10
2018-11-26T14:14:33.418Z,86.37
2018-11-26T14:17:06.190Z,86.27
2018-11-26T14:19:39.025Z,86.66
2018-11-26T14:22:11.652Z,86.83
2018-11-26T14:24:44.361Z,86.37
2018-11-26T14:27:17.049Z,86.94
2018-11-26T14:29:49.774Z,86.60
2018-11-26T14:32:22.382Z,86.18
2018-11-26T14:34:55.075Z,86.30
2018-11-26T14:37:28.617Z,86.73
2018-11-26T14:40:01.211Z,86.29
2018-11-26T14:42:33.868Z,86.66
2018-11-26T14:45:08.912Z,86.57
2018-11-26T14:47:41.811Z,86.53
2018-11-26T14:50:15.607Z,87.38
2018-11-26T14:52:49.119Z,87.55
2018-11-26T14:55:25.062Z,87.32
2018-11-26T14:57:57.854Z,87.43
2018-11-26T15:00:30.502Z,88.38
2018-11-26T15:03:03.342Z,89.13
2018-11-26T15:05:36.015Z,88.81
2018-11-26T15:08:09.343Z,88.60
2018-11-26T15:10:42.055Z,89.30
2018-11-26T15:13:14.670Z,89.89
2018-11-26T15:15:47.374Z,89.38
2018-11-26T15:18:20.056Z,89.84
2018-11-26T15:20:52.701Z,89.22
2018-11-26T15:23:25.331Z,90.00
2018-11-26T15:25:58.671Z,89.80
2018-11-26T15:28:31.279Z,90.02
2018-11-26T15:31:03.892Z,90.37
2018-11-26T15:33:36.606Z,90.32
2018-11-26T15:36:09.295Z,90.55
2018-11-26T15:38:41.927Z,90.77
2018-11-26T15:41:14.577Z,90.61
2018-11-26T15:43:47.322Z,90.66
2018-11-26T15:46:20.786Z,91.09
2018-11-26T15:48:53.463Z,90.62
2018-11-26T15:51:26.122Z,90.45
2018-11-26T15:53:59.474Z,90.78
2018-11-26T15:56:32.219Z,90.66
2018-11-26T15:59:05.004Z,90.83
2018-11-26T16:01:37.659Z,90.66
2018-11-26T16:04:10.378Z,90.81
2018-11-26T16:06:43.158Z,90.42
2018-11-26T16:09:15.867Z,90.34
2018-11-26T16:11:48.611Z,90.58
2018-11-26T16:14:21.220Z,90.47
2018-11-26T16:16:53.855Z,91.26
2018-11-26T16:19:27.176Z,90.86
2018-11-26T16:21:59.858Z,91.31
2018-11-26T16:24:32.581Z,90.73
2018-11-26T16:27:05.721Z,91.47
2018-11-26T16:29:38.482Z,90.95
2018-11-26T16:32:11.247Z,91.46
2018-11-26T16:34:43.947Z,91.61
2018-11-26T16:37:16.762Z,91.33
2018-11-26T16:39:49.478Z,91.54
2018-11-26T16:42:22.111Z,91.47
2018-11-26T16:44:54.799Z,91.45
2018-11-26T16:47:27.532Z,91.19
2018-11-26T16:50:00.213Z,91.00
2018-11-26T16:52:32.857Z,91.54
2018-11-26T16:55:10.668Z,91.07
2018-11-26T16:57:43.420Z,91.26
2018-11-26T17:00:19.024Z,91.28
2018-11-26T17:02:53.475Z,90.98
2018-11-26T17:05:35.715Z,91.08
2018-11-26T17:08:10.125Z,90.95
2018-11-26T17:10:43.219Z,90.95
2018-11-26T17:13:15.958Z,91.27
2018-11-26T17:15:48.644Z,91.49
2018-11-26T17:18:21.351Z,91.88
2018-11-26T17:20:53.970Z,91.96
2018-11-26T17:23:27.151Z,91.51
2018-11-26T17:25:59.892Z,91.99
2018-11-26T17:28:33.348Z,91.50
2018-11-26T17:31:06.602Z,91.72
2018-11-26T17:33:39.341Z,91.50
2018-11-26T17:36:12.086Z,91.77
2018-11-26T17:38:44.827Z,91.36
2018-11-26T17:41:18.538Z,91.33
2018-11-26T17:43:51.270Z,92.15
2018-11-26T17:46:23.939Z,91.74
2018-11-26T17:48:56.703Z,91.68
2018-11-26T17:51:29.268Z,91.78
2018-11-26T17:54:01.938Z,91.37
2018-11-26T17:56:35.690Z,91.73
2018-11-26T17:59:08.489Z,91.37
2018-11-26T18:01:43.666Z,90.85
2018-11-26T18:04:16.513Z,91.21
2018-11-26T18:06:49.956Z,91.26
2018-11-26T18:09:22.964Z,91.42
2018-11-26T18:11:56.336Z,91.32
2018-11-26T18:14:31.275Z,90.56
2018-11-26T18:17:04.152Z,90.07
2018-11-26T18:19:36.976Z,89.88
2018-11-26T18:22:10.416Z,90.24
2018-11-26T18:24:43.092Z,89.48
2018-11-26T18:27:15.824Z,89.74
2018-11-26T18:29:48.570Z,89.72
2018-11-26T18:32:21.657Z,89.47
2018-11-26T18:34:54.465Z,89.35
2018-11-26T18:37:27.341Z,90.08
2018-11-26T18:40:00.037Z,89.96
2018-11-26T18:42:32.796Z,90.15
2018-11-26T18:45:07.592Z,90.17
2018-11-26T18:47:40.341Z,90.24
2018-11-26T18:50:15.871Z,90.67
2018-11-26T18:52:49.453Z,90.28
2018-11-26T18:55:22.199Z,90.34
2018-11-26T18:57:55.019Z,89.93
2018-11-26T19:00:29.626Z,90.05
2018-11-26T19:03:02.300Z,90.66
2018-11-26T19:05:35.190Z,90.38
2018-11-26T19:08:08.006Z,90.65
2018-11-26T19:10:40.806Z,90.85
2018-11-26T19:13:20.115Z,90.44
2018-11-26T19:15:59.441Z,90.42
2018-11-26T19:18:33.061Z,90.33
2018-11-26T19:21:06.316Z,89.85
2018-11-26T19:23:39.084Z,90.00
2018-11-26T19:26:11.775Z,89.94
2018-11-26T19:28:44.416Z,90.63
2018-11-26T19:31:17.117Z,90.48
2018-11-26T19:33:49.789Z,90.65
2018-11-26T19:36:22.483Z,90.93
2018-11-26T19:38:55.218Z,90.71
2018-11-26T19:41:27.883Z,90.91
2018-11-26T19:44:00.624Z,90.22
2018-11-26T19:46:33.262Z,90.64
2018-11-26T19:49:06.002Z,89.96
2018-11-26T19:51:38.772Z,90.39
2018-11-26T19:54:12.102Z,90.71
2018-11-26T19:56:44.725Z,91.03
2018-11-26T19:59:17.521Z,91.08
2018-11-26T20:01:50.246Z,90.64
2018-11-26T20:04:30.543Z,91.50
2018-11-26T20:07:03.258Z,91.22
2018-11-26T20:09:35.995Z,90.99
2018-11-26T20:12:08.659Z,91.31
2018-11-26T20:14:41.454Z,91.04
2018-11-26T20:17:14.053Z,91.07
2018-11-26T20:19:46.755Z,91.39
2018-11-26T20:22:19.857Z,91.43
2018-11-26T20:24:52.284Z,91.65
2018-11-26T20:27:25.011Z,91.84
2018-11-26T20:29:57.754Z,91.35
2018-11-26T20:32:30.484Z,91.12
2018-11-26T20:36:33.830Z,91.04
2018-11-26T20:39:08.720Z,91.00
2018-11-26T20:41:41.405Z,91.40
2018-11-26T20:44:14.098Z,91.31
2018-11-26T20:46:49.125Z,91.29
2018-11-26T20:49:19.664Z,91.24
2018-11-26T20:51:52.296Z,91.31
2018-11-26T20:54:25.049Z,91.03
2018-11-26T20:56:57.773Z,91.52
2018-11-26T20:59:30.499Z,91.74
2018-11-26T21:02:03.260Z,91.86
2018-11-26T21:04:36.060Z,91.59
2018-11-26T21:07:08.730Z,91.22
2018-11-26T21:09:41.429Z,91.25
2018-11-26T21:12:14.045Z,91.48
2018-11-26T21:14:46.707Z,91.17
2018-11-26T21:17:19.356Z,91.46
2018-11-26T21:19:52.101Z,91.58
2018-11-26T21:22:24.725Z,91.31
2018-11-26T21:24:57.505Z,91.79
2018-11-26T21:27:30.256Z,91.56
2018-11-26T21:30:03.045Z,91.46
2018-11-26T21:32:35.856Z,92.21
2018-11-26T21:35:10.622Z,91.37
2018-11-26T21:37:44.626Z,91.44
2018-11-26T21:40:20.673Z,91.16
2018-11-26T21:42:53.378Z,92.17
2018-11-26T21:45:30.178Z,92.18
2018-11-26T21:48:02.932Z,92.27
2018-11-26T21:50:35.607Z,92.11
2018-11-26T21:53:08.339Z,91.96
2018-11-26T21:55:40.984Z,92.20
2018-11-26T21:58:13.630Z,91.49
2018-11-26T22:00:47.250Z,91.50
2018-11-26T22:03:19.928Z,91.47
2018-11-26T22:05:52.674Z,92.34
2018-11-26T22:08:25.253Z,92.21
2018-11-26T22:10:57.935Z,92.29
